createdAt,value
2019-04-26T00:00:41.021Z,990.63
2019-04-26T00:01:41.033Z,990.64
2019-04-26T00:02:41.018Z,990.62
2019-04-26T00:03:41.018Z,990.60
2019-04-26T00:04:41.017Z,990.62
2019-04-26T00:05:41.013Z,990.59
2019-04-26T00:06:41.013Z,990.59
2019-04-26T00:07:41.010Z,990.60
2019-04-26T00:08:41.010Z,990.60
2019-04-26T00:09:41.004Z,990.61
2019-04-26T00:10:41.004Z,990.62
2019-04-26T00:11:41.006Z,990.66
2019-04-26T00:12:41.009Z,990.58
2019-04-26T00:13:41.014Z,990.62
2019-04-26T00:14:40.999Z,990.64
2019-04-26T00:15:40.997Z,990.59
2019-04-26T00:16:40.993Z,990.59
2019-04-26T00:17:40.992Z,990.56
2019-04-26T00:18:40.987Z,990.56
2019-04-26T00:19:40.989Z,990.55
2019-04-26T00:20:40.989Z,990.52
2019-04-26T00:21:40.982Z,990.54
2019-04-26T00:22:40.982Z,990.55
2019-04-26T00:23:40.994Z,990.56
2019-04-26T00:24:40.992Z,990.55
2019-04-26T00:25:40.973Z,990.55
2019-04-26T00:26:40.971Z,990.53
2019-04-26T00:27:40.970Z,990.55
2019-04-26T00:28:40.968Z,990.51
2019-04-26T00:29:40.966Z,990.49
2019-04-26T00:30:40.964Z,990.46
2019-04-26T00:31:41.251Z,990.48
2019-04-26T00:32:40.958Z,990.50
2019-04-26T00:33:40.959Z,990.50
2019-04-26T00:34:40.957Z,990.47
2019-04-26T00:35:47.275Z,990.46
2019-04-26T00:36:40.959Z,990.45
2019-04-26T00:37:40.954Z,990.45
2019-04-26T00:38:40.946Z,990.50
2019-04-26T00:39:40.950Z,990.47
2019-04-26T00:40:40.942Z,990.53
2019-04-26T00:41:40.942Z,990.51
2019-04-26T00:42:40.939Z,990.50
2019-04-26T00:43:40.946Z,990.51
2019-04-26T00:44:40.945Z,990.44
2019-04-26T00:45:40.932Z,990.46
2019-04-26T00:46:40.933Z,990.52
2019-04-26T00:47:40.926Z,990.48
2019-04-26T00:48:40.925Z,990.55
2019-04-26T00:49:43.863Z,990.49
2019-04-26T00:50:40.923Z,990.47
2019-04-26T00:51:40.921Z,990.43
2019-04-26T00:52:40.982Z,990.45
2019-04-26T00:53:40.920Z,990.44
2019-04-26T00:54:40.915Z,990.50
2019-04-26T00:55:40.911Z,990.52
2019-04-26T00:56:40.907Z,990.51
2019-04-26T00:57:40.903Z,990.52
2019-04-26T00:58:40.918Z,990.52
2019-04-26T00:59:40.899Z,990.50
2019-04-26T01:00:40.898Z,990.50
2019-04-26T01:01:40.896Z,990.52
2019-04-26T01:02:41.695Z,990.49
2019-04-26T01:03:40.887Z,990.51
2019-04-26T01:04:40.885Z,990.48
2019-04-26T01:05:40.892Z,990.49
2019-04-26T01:06:40.882Z,990.50
2019-04-26T01:07:40.879Z,990.48
2019-04-26T01:08:40.880Z,990.48
2019-04-26T01:09:40.873Z,990.45
2019-04-26T01:10:40.870Z,990.47
2019-04-26T01:11:40.869Z,990.50
2019-04-26T01:12:40.866Z,990.49
2019-04-26T01:13:40.864Z,990.54
2019-04-26T01:14:40.861Z,990.54
2019-04-26T01:15:40.858Z,990.52
2019-04-26T01:16:40.853Z,990.52
2019-04-26T01:17:40.856Z,990.49
2019-04-26T01:18:40.850Z,990.52
2019-04-26T01:19:40.857Z,990.47
2019-04-26T01:20:40.851Z,990.51
2019-04-26T01:21:40.840Z,990.57
2019-04-26T01:22:40.844Z,990.57
2019-04-26T01:23:40.836Z,990.58
2019-04-26T01:24:40.834Z,990.61
2019-04-26T01:25:40.834Z,990.59
2019-04-26T01:26:40.830Z,990.56
2019-04-26T01:27:40.855Z,990.56
2019-04-26T01:28:40.826Z,990.54
2019-04-26T01:29:40.819Z,990.59
2019-04-26T01:30:40.832Z,990.58
2019-04-26T01:31:40.816Z,990.59
2019-04-26T01:32:40.811Z,990.57
2019-04-26T01:33:40.809Z,990.62
2019-04-26T01:34:40.805Z,990.60
2019-04-26T01:35:40.803Z,990.63
2019-04-26T01:36:40.804Z,990.63
2019-04-26T01:37:40.799Z,990.66
2019-04-26T01:38:40.802Z,990.65
2019-04-26T01:39:40.793Z,990.64
2019-04-26T01:40:40.790Z,990.65
2019-04-26T01:41:40.798Z,990.72
2019-04-26T01:42:40.783Z,990.75
2019-04-26T01:43:40.780Z,990.77
2019-04-26T01:44:40.799Z,990.78
2019-04-26T01:45:40.774Z,990.77
2019-04-26T01:46:40.773Z,990.79
2019-04-26T01:47:40.776Z,990.79
2019-04-26T01:48:40.767Z,990.78
2019-04-26T01:49:40.763Z,990.80
2019-04-26T01:50:40.761Z,990.84
2019-04-26T01:51:40.763Z,990.86
2019-04-26T01:52:40.755Z,990.90
2019-04-26T01:53:40.754Z,990.94
2019-04-26T01:54:40.757Z,990.95
2019-04-26T01:55:40.773Z,990.97
2019-04-26T01:56:40.745Z,990.96
2019-04-26T01:57:40.737Z,990.94
2019-04-26T01:58:40.751Z,990.97
2019-04-26T01:59:40.735Z,990.97
2019-04-26T02:00:40.730Z,990.92
2019-04-26T02:01:40.732Z,990.92
2019-04-26T02:02:40.725Z,990.89
2019-04-26T02:03:40.722Z,990.94
2019-04-26T02:04:40.719Z,990.91
2019-04-26T02:05:40.714Z,990.93
2019-04-26T02:06:40.711Z,990.91
2019-04-26T02:07:40.711Z,990.90
2019-04-26T02:08:40.722Z,990.88
2019-04-26T02:09:40.706Z,990.89
2019-04-26T02:10:40.702Z,990.91
2019-04-26T02:11:40.703Z,990.92
2019-04-26T02:12:40.700Z,990.96
2019-04-26T02:13:40.693Z,990.95
2019-04-26T02:14:40.691Z,990.97
2019-04-26T02:15:40.685Z,990.98
2019-04-26T02:16:40.684Z,991.02
2019-04-26T02:17:40.681Z,991.04
2019-04-26T02:18:40.681Z,991.07
2019-04-26T02:19:40.677Z,991.07
2019-04-26T02:20:40.674Z,991.06
2019-04-26T02:21:40.669Z,991.02
2019-04-26T02:22:40.678Z,990.99
2019-04-26T02:23:40.681Z,990.98
2019-04-26T02:24:40.661Z,990.97
2019-04-26T02:25:40.658Z,990.94
2019-04-26T02:26:40.653Z,990.99
2019-04-26T02:27:40.653Z,990.95
2019-04-26T02:28:40.652Z,990.99
2019-04-26T02:29:40.651Z,990.97
2019-04-26T02:30:40.645Z,990.98
2019-04-26T02:31:40.642Z,991.00
2019-04-26T02:32:40.652Z,990.96
2019-04-26T02:33:40.640Z,990.99
2019-04-26T02:34:41.007Z,990.98
2019-04-26T02:35:40.629Z,990.94
2019-04-26T02:36:56.108Z,990.91
2019-04-26T02:37:40.629Z,990.92
2019-04-26T02:38:40.625Z,990.92
2019-04-26T02:39:40.620Z,990.88
2019-04-26T02:40:40.618Z,990.90
2019-04-26T02:41:40.612Z,990.91
2019-04-26T02:42:40.623Z,990.92
2019-04-26T02:43:40.632Z,990.98
2019-04-26T02:44:40.611Z,990.94
2019-04-26T02:45:40.603Z,990.97
2019-04-26T02:46:40.600Z,991.02
2019-04-26T02:47:40.598Z,991.03
2019-04-26T02:48:40.598Z,991.03
2019-04-26T02:49:40.596Z,991.08
2019-04-26T02:50:40.598Z,991.09
2019-04-26T02:51:40.587Z,991.13
2019-04-26T02:52:40.584Z,991.16
2019-04-26T02:53:40.601Z,991.22
2019-04-26T02:54:40.581Z,991.20
2019-04-26T02:55:42.701Z,991.21
2019-04-26T02:56:40.586Z,991.24
2019-04-26T02:57:40.571Z,991.20
2019-04-26T02:58:40.568Z,991.23
2019-04-26T02:59:41.024Z,991.25
2019-04-26T03:00:40.561Z,991.22
2019-04-26T03:01:40.561Z,991.20
2019-04-26T03:02:40.637Z,991.26
2019-04-26T03:03:40.554Z,991.26
2019-04-26T03:04:40.549Z,991.26
2019-04-26T03:05:41.477Z,991.25
2019-04-26T03:06:41.209Z,991.24
2019-04-26T03:07:40.539Z,991.27
2019-04-26T03:08:40.547Z,991.29
2019-04-26T03:09:40.555Z,991.32
2019-04-26T03:10:40.596Z,991.33
2019-04-26T03:11:40.531Z,991.33
2019-04-26T03:12:40.526Z,991.33
2019-04-26T03:13:40.525Z,991.35
2019-04-26T03:14:41.963Z,991.32
2019-04-26T03:15:40.518Z,991.31
2019-04-26T03:16:41.502Z,991.32
2019-04-26T03:17:40.938Z,991.32
2019-04-26T03:18:41.603Z,991.38
2019-04-26T03:19:40.865Z,991.36
2019-04-26T03:20:42.244Z,991.34
2019-04-26T03:21:41.471Z,991.35
2019-04-26T03:22:41.161Z,991.30
2019-04-26T03:23:53.260Z,991.24
2019-04-26T03:24:42.164Z,991.32
2019-04-26T03:25:42.088Z,991.34
2019-04-26T03:26:41.553Z,991.35
2019-04-26T03:27:43.029Z,991.40
2019-04-26T03:28:43.456Z,991.41
2019-04-26T03:29:41.958Z,991.42
2019-04-26T03:30:48.635Z,991.46
2019-04-26T03:31:51.910Z,991.46
2019-04-26T03:32:50.319Z,991.43
2019-04-26T03:33:49.967Z,991.42
2019-04-26T03:34:50.750Z,991.40
2019-04-26T03:35:54.550Z,991.38
2019-04-26T03:36:42.064Z,991.41
2019-04-26T03:37:42.007Z,991.42
2019-04-26T03:38:41.916Z,991.42
2019-04-26T03:39:42.416Z,991.45
2019-04-26T03:40:42.441Z,991.39
2019-04-26T03:41:41.086Z,991.43
2019-04-26T03:42:42.201Z,991.45
2019-04-26T03:43:41.356Z,991.46
2019-04-26T03:44:41.144Z,991.41
2019-04-26T03:45:42.471Z,991.39
2019-04-26T03:46:41.840Z,991.42
2019-04-26T03:47:42.666Z,991.41
2019-04-26T03:48:41.708Z,991.41
2019-04-26T03:49:42.053Z,991.38
2019-04-26T03:50:41.023Z,991.43
2019-04-26T03:51:41.143Z,991.45
2019-04-26T03:52:42.112Z,991.51
2019-04-26T03:53:41.871Z,991.45
2019-04-26T03:54:41.064Z,991.47
2019-04-26T03:55:41.949Z,991.46
2019-04-26T03:56:41.819Z,991.47
2019-04-26T03:57:42.166Z,991.41
2019-04-26T03:58:41.793Z,991.41
2019-04-26T03:59:42.170Z,991.41
2019-04-26T04:00:41.475Z,991.41
2019-04-26T04:01:41.267Z,991.45
2019-04-26T04:02:41.550Z,991.43
2019-04-26T04:03:43.156Z,991.37
2019-04-26T04:04:41.603Z,991.38
2019-04-26T04:05:41.979Z,991.44
2019-04-26T04:06:56.359Z,991.37
2019-04-26T04:07:47.283Z,991.44
2019-04-26T04:08:41.991Z,991.43
2019-04-26T04:09:41.449Z,991.44
2019-04-26T04:10:41.944Z,991.42
2019-04-26T04:11:42.305Z,991.41
2019-04-26T04:12:42.157Z,991.45
2019-04-26T04:13:43.264Z,991.53
2019-04-26T04:14:41.938Z,991.58
2019-04-26T04:15:41.934Z,991.62
2019-04-26T04:16:42.443Z,991.69
2019-04-26T04:17:43.296Z,991.74
2019-04-26T04:18:41.770Z,991.79
2019-04-26T04:19:41.883Z,991.82
2019-04-26T04:20:41.065Z,991.85
2019-04-26T04:21:41.231Z,991.86
2019-04-26T04:22:41.773Z,991.91
2019-04-26T04:23:41.866Z,991.96
2019-04-26T04:24:41.637Z,992.00
2019-04-26T04:25:42.355Z,991.99
2019-04-26T04:26:41.500Z,992.04
2019-04-26T04:27:41.952Z,992.07
2019-04-26T04:28:42.052Z,992.14
2019-04-26T04:29:47.140Z,992.16
2019-04-26T04:30:41.919Z,992.16
2019-04-26T04:31:41.656Z,992.21
2019-04-26T04:32:41.904Z,992.17
2019-04-26T04:33:42.654Z,992.18
2019-04-26T04:34:42.132Z,992.21
2019-04-26T04:35:42.251Z,992.20
2019-04-26T04:36:41.725Z,992.23
2019-04-26T04:38:02.188Z,992.28
2019-04-26T04:38:42.049Z,992.32
2019-04-26T04:39:42.059Z,992.36
2019-04-26T04:40:40.866Z,992.36
2019-04-26T04:41:41.029Z,992.34
2019-04-26T04:42:41.500Z,992.39
2019-04-26T04:43:41.854Z,992.32
2019-04-26T04:44:42.337Z,992.32
2019-04-26T04:45:41.732Z,992.36
2019-04-26T04:46:41.743Z,992.39
2019-04-26T04:47:41.228Z,992.42
2019-04-26T04:48:41.169Z,992.43
2019-04-26T04:49:41.212Z,992.46
2019-04-26T04:50:40.960Z,992.48
2019-04-26T04:51:40.854Z,992.46
2019-04-26T04:52:42.501Z,992.47
2019-04-26T04:53:41.186Z,992.47
2019-04-26T04:54:41.568Z,992.50
2019-04-26T04:55:42.818Z,992.50
2019-04-26T04:56:41.512Z,992.52
2019-04-26T04:57:40.170Z,992.49
2019-04-26T04:58:40.165Z,992.50
2019-04-26T04:59:40.163Z,992.50
2019-04-26T05:00:40.160Z,992.51
2019-04-26T05:01:40.158Z,992.49
2019-04-26T05:02:40.166Z,992.52
2019-04-26T05:03:40.166Z,992.49
2019-04-26T05:04:40.156Z,992.50
2019-04-26T05:05:40.158Z,992.53
2019-04-26T05:06:40.143Z,992.54
2019-04-26T05:07:40.140Z,992.56
2019-04-26T05:08:40.135Z,992.57
2019-04-26T05:09:40.183Z,992.59
2019-04-26T05:10:40.130Z,992.58
2019-04-26T05:11:40.129Z,992.53
2019-04-26T05:12:40.126Z,992.47
2019-04-26T05:13:40.121Z,992.49
2019-04-26T05:14:40.119Z,992.42
2019-04-26T05:15:40.114Z,992.39
2019-04-26T05:16:40.123Z,992.29
2019-04-26T05:17:40.110Z,992.34
2019-04-26T05:18:40.105Z,992.31
2019-04-26T05:19:40.122Z,992.30
2019-04-26T05:20:40.116Z,992.35
2019-04-26T05:21:40.099Z,992.37
2019-04-26T05:22:40.098Z,992.37
2019-04-26T05:23:40.095Z,992.35
2019-04-26T05:24:40.102Z,992.37
2019-04-26T05:25:40.494Z,992.38
2019-04-26T05:26:40.084Z,992.44
2019-04-26T05:27:40.085Z,992.41
2019-04-26T05:28:40.083Z,992.44
2019-04-26T05:29:40.088Z,992.49
2019-04-26T05:30:40.076Z,992.51
2019-04-26T05:31:40.074Z,992.54
2019-04-26T05:32:40.078Z,992.52
2019-04-26T05:33:40.068Z,992.56
2019-04-26T05:34:40.069Z,992.62
2019-04-26T05:35:40.070Z,992.58
2019-04-26T05:36:40.065Z,992.60
2019-04-26T05:37:40.068Z,992.65
2019-04-26T05:38:40.061Z,992.64
2019-04-26T05:39:40.076Z,992.70
2019-04-26T05:40:40.059Z,992.69
2019-04-26T05:41:40.055Z,992.69
2019-04-26T05:42:40.056Z,992.68
2019-04-26T05:43:40.052Z,992.75
2019-04-26T05:44:40.073Z,992.76
2019-04-26T05:45:40.648Z,992.74
2019-04-26T05:46:40.049Z,992.90
2019-04-26T05:47:40.046Z,992.87
2019-04-26T05:48:40.052Z,992.87
2019-04-26T05:49:40.056Z,992.89
2019-04-26T05:50:40.041Z,992.95
2019-04-26T05:51:40.040Z,992.92
2019-04-26T05:52:40.041Z,992.90
2019-04-26T05:53:40.047Z,992.89
2019-04-26T05:54:40.038Z,992.85
2019-04-26T05:55:40.035Z,992.86
2019-04-26T05:56:40.035Z,992.83
2019-04-26T05:57:40.034Z,992.84
2019-04-26T05:58:40.032Z,992.87
2019-04-26T05:59:40.029Z,992.86
2019-04-26T06:00:40.028Z,992.87
2019-04-26T06:01:40.034Z,992.89
2019-04-26T06:02:40.025Z,992.85
2019-04-26T06:03:40.024Z,992.83
2019-04-26T06:04:40.022Z,992.83
2019-04-26T06:05:40.024Z,992.81
2019-04-26T06:06:40.020Z,992.82
2019-04-26T06:07:40.022Z,992.81
2019-04-26T06:08:40.026Z,992.83
2019-04-26T06:09:40.015Z,992.82
2019-04-26T06:10:40.026Z,992.95
2019-04-26T06:11:40.015Z,992.88
2019-04-26T06:12:40.011Z,992.80
2019-04-26T06:13:40.009Z,992.92
2019-04-26T06:14:40.014Z,992.97
2019-04-26T06:15:40.074Z,993.00
2019-04-26T06:16:40.006Z,993.00
2019-04-26T06:17:40.003Z,993.00
2019-04-26T06:18:40.034Z,993.00
2019-04-26T06:19:40.001Z,993.02
2019-04-26T06:20:40.001Z,993.05
2019-04-26T06:21:40.008Z,993.09
2019-04-26T06:22:40.002Z,993.13
2019-04-26T06:23:40.004Z,993.12
2019-04-26T06:24:39.997Z,993.19
2019-04-26T06:25:39.992Z,993.13
2019-04-26T06:26:41.556Z,993.19
2019-04-26T06:27:39.998Z,993.19
2019-04-26T06:28:39.992Z,993.20
2019-04-26T06:29:39.986Z,993.17
2019-04-26T06:30:45.574Z,993.22
2019-04-26T06:31:39.994Z,993.25
2019-04-26T06:32:40.020Z,993.26
2019-04-26T06:33:39.981Z,993.18
2019-04-26T06:34:39.982Z,993.19
2019-04-26T06:35:39.982Z,993.13
2019-04-26T06:36:39.984Z,993.17
2019-04-26T06:37:39.975Z,993.16
2019-04-26T06:38:44.032Z,993.18
2019-04-26T06:39:39.973Z,993.22
2019-04-26T06:40:42.015Z,993.22
2019-04-26T06:41:39.970Z,993.27
2019-04-26T06:42:39.966Z,993.24
2019-04-26T06:43:39.968Z,993.22
2019-04-26T06:44:39.976Z,993.22
2019-04-26T06:45:40.025Z,993.20
2019-04-26T06:46:39.961Z,993.20
2019-04-26T06:47:39.962Z,993.15
2019-04-26T06:48:39.983Z,993.25
2019-04-26T06:49:39.955Z,993.32
2019-04-26T06:50:39.960Z,993.25
2019-04-26T06:51:39.976Z,993.31
2019-04-26T06:52:39.951Z,993.28
2019-04-26T06:53:39.950Z,993.31
2019-04-26T06:54:39.946Z,993.28
2019-04-26T06:55:39.972Z,993.32
2019-04-26T06:56:39.943Z,993.32
2019-04-26T06:57:39.940Z,993.34
2019-04-26T06:58:39.945Z,993.32
2019-04-26T06:59:39.937Z,993.14
2019-04-26T07:00:39.934Z,993.11
2019-04-26T07:01:39.935Z,993.11
2019-04-26T07:02:39.936Z,993.10
2019-04-26T07:03:39.930Z,993.14
2019-04-26T07:04:39.927Z,993.11
2019-04-26T07:05:39.930Z,993.18
2019-04-26T07:06:39.927Z,993.16
2019-04-26T07:07:39.931Z,993.21
2019-04-26T07:08:39.924Z,993.16
2019-04-26T07:09:39.918Z,993.17
2019-04-26T07:10:39.918Z,993.12
2019-04-26T07:11:40.975Z,993.16
2019-04-26T07:12:39.913Z,993.21
2019-04-26T07:13:39.920Z,993.20
2019-04-26T07:14:39.907Z,993.18
2019-04-26T07:15:39.906Z,993.21
2019-04-26T07:16:39.911Z,993.20
2019-04-26T07:17:39.916Z,993.16
2019-04-26T07:18:39.911Z,993.12
2019-04-26T07:19:39.902Z,993.20
2019-04-26T07:20:39.896Z,993.12
2019-04-26T07:21:39.898Z,993.16
2019-04-26T07:22:39.896Z,993.07
2019-04-26T07:23:39.895Z,993.14
2019-04-26T07:24:39.895Z,993.02
2019-04-26T07:25:39.888Z,993.00
2019-04-26T07:26:39.903Z,993.03
2019-04-26T07:27:39.912Z,993.01
2019-04-26T07:28:39.882Z,993.02
2019-04-26T07:29:39.919Z,993.11
2019-04-26T07:30:39.881Z,993.05
2019-04-26T07:31:39.878Z,993.15
2019-04-26T07:32:39.880Z,993.14
2019-04-26T07:33:39.956Z,993.07
2019-04-26T07:34:39.874Z,993.06
2019-04-26T07:35:39.875Z,993.07
2019-04-26T07:36:39.870Z,993.10
2019-04-26T07:37:39.867Z,993.08
2019-04-26T07:38:39.876Z,993.18
2019-04-26T07:39:39.864Z,993.09
2019-04-26T07:40:39.872Z,993.18
2019-04-26T07:41:39.862Z,993.16
2019-04-26T07:42:39.859Z,993.14
2019-04-26T07:43:39.902Z,993.20
2019-04-26T07:44:39.854Z,993.16
2019-04-26T07:45:39.851Z,993.17
2019-04-26T07:46:39.853Z,993.20
2019-04-26T07:47:39.849Z,993.19
2019-04-26T07:48:39.848Z,993.19
2019-04-26T07:49:39.848Z,993.18
2019-04-26T07:50:39.847Z,993.19
2019-04-26T07:51:39.859Z,993.15
2019-04-26T07:52:39.849Z,993.15
2019-04-26T07:53:39.844Z,993.15
2019-04-26T07:54:39.875Z,993.12
2019-04-26T07:55:39.901Z,993.06
2019-04-26T07:56:39.889Z,993.15
2019-04-26T07:57:40.529Z,993.13
2019-04-26T07:58:42.530Z,993.16
2019-04-26T07:59:39.866Z,993.12
2019-04-26T08:00:45.015Z,993.08
2019-04-26T08:01:39.963Z,993.08
2019-04-26T08:02:39.988Z,993.15
2019-04-26T08:03:39.946Z,993.10
2019-04-26T08:04:39.885Z,993.12
2019-04-26T08:05:39.895Z,993.10
2019-04-26T08:06:39.824Z,993.12
2019-04-26T08:07:39.897Z,993.10
2019-04-26T08:08:40.580Z,993.16
2019-04-26T08:09:39.825Z,993.13
2019-04-26T08:10:39.848Z,993.11
2019-04-26T08:11:39.826Z,993.15
2019-04-26T08:12:39.843Z,993.21
2019-04-26T08:13:39.835Z,993.27
2019-04-26T08:14:39.821Z,993.34
2019-04-26T08:15:39.840Z,993.30
2019-04-26T08:16:39.896Z,993.39
2019-04-26T08:17:39.885Z,993.36
2019-04-26T08:18:39.996Z,993.34
2019-04-26T08:19:39.862Z,993.31
2019-04-26T08:20:39.853Z,993.30
2019-04-26T08:21:42.770Z,993.35
2019-04-26T08:22:39.936Z,993.36
2019-04-26T08:23:42.149Z,993.39
2019-04-26T08:24:39.820Z,993.31
2019-04-26T08:25:39.822Z,993.33
2019-04-26T08:26:39.828Z,993.34
2019-04-26T08:27:39.823Z,993.41
2019-04-26T08:28:39.815Z,993.34
2019-04-26T08:29:39.831Z,993.36
2019-04-26T08:30:40.529Z,993.38
2019-04-26T08:31:39.943Z,993.38
2019-04-26T08:32:40.516Z,993.36
2019-04-26T08:33:40.414Z,993.36
2019-04-26T08:34:39.927Z,993.37
2019-04-26T08:35:39.822Z,993.46
2019-04-26T08:36:45.945Z,993.43
2019-04-26T08:37:39.815Z,993.39
2019-04-26T08:38:40.039Z,993.42
2019-04-26T08:39:45.502Z,993.33
2019-04-26T08:40:39.818Z,993.33
2019-04-26T08:41:40.235Z,993.36
2019-04-26T08:42:39.814Z,993.33
2019-04-26T08:43:40.150Z,993.33
2019-04-26T08:44:39.813Z,993.39
2019-04-26T08:45:40.547Z,993.34
2019-04-26T08:46:39.814Z,993.36
2019-04-26T08:47:39.822Z,993.32
2019-04-26T08:48:39.821Z,993.37
2019-04-26T08:49:40.085Z,993.36
2019-04-26T08:50:42.205Z,993.37
2019-04-26T08:51:39.937Z,993.36
2019-04-26T08:52:39.817Z,993.43
2019-04-26T08:53:39.819Z,993.42
2019-04-26T08:54:39.830Z,993.43
2019-04-26T08:55:39.817Z,993.44
2019-04-26T08:56:39.816Z,993.46
2019-04-26T08:57:39.823Z,993.49
2019-04-26T08:58:39.824Z,993.56
2019-04-26T08:59:39.819Z,993.58
2019-04-26T09:00:39.819Z,993.64
2019-04-26T09:01:42.063Z,993.68
2019-04-26T09:02:39.827Z,993.66
2019-04-26T09:03:39.827Z,993.72
2019-04-26T09:04:41.600Z,993.70
2019-04-26T09:05:39.861Z,993.71
2019-04-26T09:06:39.832Z,993.73
2019-04-26T09:07:40.104Z,993.76
2019-04-26T09:08:43.500Z,993.76
2019-04-26T09:09:39.834Z,993.83
2019-04-26T09:10:43.337Z,993.87
2019-04-26T09:11:39.841Z,993.89
2019-04-26T09:12:39.847Z,993.91
2019-04-26T09:13:39.882Z,993.88
2019-04-26T09:14:40.847Z,993.86
2019-04-26T09:15:40.733Z,993.91
2019-04-26T09:16:49.884Z,993.81
2019-04-26T09:17:39.860Z,993.79
2019-04-26T09:18:43.610Z,993.78
2019-04-26T09:19:39.893Z,993.75
2019-04-26T09:20:42.938Z,993.84
2019-04-26T09:21:39.873Z,993.80
2019-04-26T09:22:39.903Z,993.79
2019-04-26T09:23:40.589Z,993.79
2019-04-26T09:24:39.888Z,993.79
2019-04-26T09:25:39.877Z,993.82
2019-04-26T09:26:42.446Z,993.75
2019-04-26T09:27:39.882Z,993.83
2019-04-26T09:28:39.882Z,993.85
2019-04-26T09:29:39.933Z,993.86
2019-04-26T09:30:42.273Z,993.80
2019-04-26T09:31:39.885Z,993.80
2019-04-26T09:32:39.889Z,993.78
2019-04-26T09:33:39.893Z,993.79
2019-04-26T09:34:41.293Z,993.77
2019-04-26T09:35:39.896Z,993.78
2019-04-26T09:36:39.894Z,993.78
2019-04-26T09:37:39.896Z,993.79
2019-04-26T09:38:39.906Z,993.83
2019-04-26T09:39:41.692Z,993.81
2019-04-26T09:40:39.904Z,993.84
2019-04-26T09:41:39.903Z,993.88
2019-04-26T09:42:41.022Z,993.92
2019-04-26T09:43:39.909Z,993.95
2019-04-26T09:44:41.320Z,993.94
2019-04-26T09:45:39.928Z,993.85
2019-04-26T09:46:39.911Z,993.89
2019-04-26T09:47:39.942Z,993.94
2019-04-26T09:48:39.927Z,993.94
2019-04-26T09:49:41.163Z,993.93
2019-04-26T09:50:39.918Z,993.92
2019-04-26T09:51:40.495Z,993.91
2019-04-26T09:52:39.925Z,993.91
2019-04-26T09:53:43.511Z,993.97
2019-04-26T09:54:39.926Z,994.01
2019-04-26T09:55:39.926Z,994.01
2019-04-26T09:56:39.928Z,994.04
2019-04-26T09:57:39.930Z,994.02
2019-04-26T09:58:39.932Z,993.99
2019-04-26T09:59:41.105Z,993.91
2019-04-26T10:00:39.937Z,993.90
2019-04-26T10:01:39.938Z,993.83
2019-04-26T10:02:39.941Z,993.86
2019-04-26T10:03:39.941Z,993.91
2019-04-26T10:04:39.944Z,993.75
2019-04-26T10:05:39.945Z,993.82
2019-04-26T10:06:39.949Z,993.76
2019-04-26T10:07:39.949Z,993.72
2019-04-26T10:08:43.341Z,993.77
2019-04-26T10:09:39.964Z,993.79
2019-04-26T10:10:39.952Z,993.65
2019-04-26T10:11:43.480Z,993.71
2019-04-26T10:12:39.957Z,993.68
2019-04-26T10:13:39.955Z,993.69
2019-04-26T10:14:39.961Z,993.70
2019-04-26T10:15:39.961Z,993.69
2019-04-26T10:16:42.178Z,993.67
2019-04-26T10:17:39.969Z,993.78
2019-04-26T10:18:39.967Z,993.76
2019-04-26T10:19:39.966Z,993.78
2019-04-26T10:20:39.992Z,993.71
2019-04-26T10:21:40.031Z,993.70
2019-04-26T10:22:39.974Z,993.71
2019-04-26T10:23:40.027Z,993.73
2019-04-26T10:24:39.977Z,993.80
2019-04-26T10:25:39.989Z,993.66
2019-04-26T10:26:39.981Z,993.71
2019-04-26T10:27:40.689Z,993.73
2019-04-26T10:28:39.990Z,993.80
2019-04-26T10:29:39.989Z,993.90
2019-04-26T10:30:42.282Z,993.81
2019-04-26T10:31:40.016Z,993.87
2019-04-26T10:32:39.991Z,993.92
2019-04-26T10:33:39.993Z,993.93
2019-04-26T10:34:42.668Z,993.93
2019-04-26T10:35:39.997Z,993.86
2019-04-26T10:36:40.011Z,993.95
2019-04-26T10:37:43.699Z,993.86
2019-04-26T10:38:40.002Z,993.85
2019-04-26T10:39:40.004Z,993.94
2019-04-26T10:40:40.008Z,993.93
2019-04-26T10:41:40.061Z,993.86
2019-04-26T10:42:40.015Z,993.91
2019-04-26T10:43:40.015Z,993.84
2019-04-26T10:44:41.095Z,993.96
2019-04-26T10:45:40.027Z,993.84
2019-04-26T10:46:40.017Z,993.84
2019-04-26T10:47:40.025Z,993.92
2019-04-26T10:48:41.416Z,993.90
2019-04-26T10:49:40.024Z,993.88
2019-04-26T10:50:40.044Z,993.98
2019-04-26T10:51:41.922Z,993.98
2019-04-26T10:52:40.035Z,994.01
2019-04-26T10:53:40.036Z,994.01
2019-04-26T10:54:40.988Z,994.03
2019-04-26T10:55:40.042Z,993.97
2019-04-26T10:56:40.052Z,994.06
2019-04-26T10:57:40.047Z,994.17
2019-04-26T10:58:40.049Z,994.08
2019-04-26T10:59:44.007Z,994.22
2019-04-26T11:00:40.061Z,994.21
2019-04-26T11:01:40.059Z,994.08
2019-04-26T11:02:40.074Z,994.13
2019-04-26T11:03:40.347Z,994.08
2019-04-26T11:04:41.469Z,994.16
2019-04-26T11:05:40.068Z,994.18
2019-04-26T11:06:40.074Z,994.12
2019-04-26T11:07:40.084Z,994.16
2019-04-26T11:08:40.081Z,994.09
2019-04-26T11:09:40.079Z,994.17
2019-04-26T11:10:48.613Z,994.15
2019-04-26T11:11:40.080Z,994.12
2019-04-26T11:12:43.414Z,994.16
2019-04-26T11:13:40.089Z,994.17
2019-04-26T11:14:40.088Z,994.22
2019-04-26T11:15:40.090Z,994.17
2019-04-26T11:16:41.171Z,994.18
2019-04-26T11:17:41.660Z,994.20
2019-04-26T11:18:40.123Z,994.23
2019-04-26T11:19:40.098Z,994.25
2019-04-26T11:20:41.428Z,994.28
2019-04-26T11:21:40.102Z,994.24
2019-04-26T11:22:40.107Z,994.28
2019-04-26T11:23:41.021Z,994.23
2019-04-26T11:24:40.124Z,994.28
2019-04-26T11:25:40.189Z,994.32
2019-04-26T11:26:41.601Z,994.32
2019-04-26T11:27:43.707Z,994.33
2019-04-26T11:28:41.988Z,994.33
2019-04-26T11:29:52.940Z,994.32
2019-04-26T11:30:40.155Z,994.37
2019-04-26T11:31:40.156Z,994.34
2019-04-26T11:32:40.128Z,994.44
2019-04-26T11:33:45.128Z,994.34
2019-04-26T11:34:42.819Z,994.32
2019-04-26T11:35:40.228Z,994.40
2019-04-26T11:36:41.780Z,994.35
2019-04-26T11:37:40.147Z,994.38
2019-04-26T11:38:40.192Z,994.47
2019-04-26T11:39:40.815Z,994.45
2019-04-26T11:40:40.174Z,994.51
2019-04-26T11:41:40.146Z,994.46
2019-04-26T11:42:41.967Z,994.49
2019-04-26T11:43:40.151Z,994.42
2019-04-26T11:44:40.153Z,994.52
2019-04-26T11:45:40.153Z,994.55
2019-04-26T11:46:44.833Z,994.54
2019-04-26T11:47:54.377Z,994.46
2019-04-26T11:48:41.590Z,994.47
2019-04-26T11:49:41.487Z,994.42
2019-04-26T11:50:41.247Z,994.45
2019-04-26T11:51:40.171Z,994.42
2019-04-26T11:52:40.194Z,994.43
2019-04-26T11:53:44.667Z,994.48
2019-04-26T11:54:40.171Z,994.61
2019-04-26T11:55:40.216Z,994.63
2019-04-26T11:56:40.202Z,994.58
2019-04-26T11:57:43.484Z,994.63
2019-04-26T11:58:40.178Z,994.59
2019-04-26T11:59:40.192Z,994.64
2019-04-26T12:00:40.208Z,994.64
2019-04-26T12:01:40.703Z,994.61
2019-04-26T12:02:40.221Z,994.57
2019-04-26T12:03:40.204Z,994.58
2019-04-26T12:04:40.191Z,994.56
2019-04-26T12:05:40.290Z,994.48
2019-04-26T12:06:40.217Z,994.48
2019-04-26T12:07:41.101Z,994.57
2019-04-26T12:08:40.196Z,994.60
2019-04-26T12:09:40.206Z,994.59
2019-04-26T12:10:43.905Z,994.57
2019-04-26T12:11:49.425Z,994.62
2019-04-26T12:12:43.115Z,994.63
2019-04-26T12:13:40.201Z,994.62
2019-04-26T12:14:40.203Z,994.60
2019-04-26T12:15:43.835Z,994.54
2019-04-26T12:16:48.153Z,994.53
2019-04-26T12:17:40.209Z,994.53
2019-04-26T12:18:44.235Z,994.53
2019-04-26T12:19:40.211Z,994.58
2019-04-26T12:20:40.215Z,994.52
2019-04-26T12:21:40.212Z,994.56
2019-04-26T12:22:43.376Z,994.63
2019-04-26T12:23:40.217Z,994.64
2019-04-26T12:24:40.220Z,994.65
2019-04-26T12:25:43.238Z,994.60
2019-04-26T12:26:43.682Z,994.61
2019-04-26T12:27:40.274Z,994.71
2019-04-26T12:28:41.343Z,994.64